Weather at Chatsworth Airport

Public forecast

Using degrees Celsius for public forecast. Weather courtesy of forecast.io.

Closest aviation weather report (METAR) to Chatsworth Airport

Closest report is Cloncurry Airport, 78.8 nm (145.9 km) N. Retrieved 2021/06/19 21:00 UTC (14 minutes ago):

YCCY 192100Z AUTO 18006KT 9999 // NCD 08/02 Q1020

Closest aviation forecast (TAF) to Chatsworth Airport

Closest forecast is Mount Isa Airport, 90.4 nm (167.5 km) NNW. Retrieved 2021/06/19 18:03 UTC (3 hours ago):

TAF TAF YBMA 191607Z 1918/2006 15010KT CAVOK